Time;durP1;ratioP1;P1;durP2;ratioP2;P2;SDS_P1;SDS_P2;PMS_P1;PMS_P2;Temp;Humidity;BMP_temperature;BMP_pressure;BME280_temperature;BME280_humidity;BME280_pressure;Samples;Min_cycle;Max_cycle;Signal;HPM_P1;HPM_P2
2022/07/14 00:00:54;;;;;;;9.43;2.97;;;14.60;99.90;;;;;;5004773;28;20050;-67
2022/07/14 00:03:20;;;;;;;9.57;3.30;;;14.50;99.90;;;;;;4971257;28;20488;-67
2022/07/14 00:05:46;;;;;;;8.55;3.13;;;14.50;99.90;;;;;;4988794;28;20052;-67
2022/07/14 00:08:12;;;;;;;10.57;3.45;;;14.40;99.90;;;;;;4992839;28;20042;-67
2022/07/14 00:10:38;;;;;;;12.75;3.97;;;14.40;99.90;;;;;;4974817;28;20504;-66
2022/07/14 00:13:04;;;;;;;11.30;3.42;;;14.40;99.90;;;;;;4990898;28;20131;-67
2022/07/14 00:15:30;;;;;;;12.30;3.33;;;14.30;99.90;;;;;;4987378;28;20487;-67
2022/07/14 00:17:58;;;;;;;10.05;3.33;;;14.30;99.90;;;;;;4987244;28;20646;-67
2022/07/14 00:20:25;;;;;;;9.63;3.15;;;14.30;99.90;;;;;;4994555;28;20053;-67
2022/07/14 00:22:51;;;;;;;7.40;3.15;;;14.30;99.90;;;;;;4974298;28;20076;-67
2022/07/14 00:25:17;;;;;;;10.70;3.03;;;14.30;99.90;;;;;;4991563;28;20577;-67
2022/07/14 00:27:43;;;;;;;8.80;2.90;;;14.30;99.90;;;;;;4991751;28;20045;-66
2022/07/14 00:30:10;;;;;;;8.38;3.20;;;14.30;99.90;;;;;;4959597;28;20381;-66
2022/07/14 00:32:36;;;;;;;11.55;3.05;;;14.30;99.90;;;;;;4993275;28;20073;-66
2022/07/14 00:35:03;;;;;;;12.68;3.50;;;14.30;99.90;;;;;;4992731;28;20595;-67
2022/07/14 00:37:30;;;;;;;11.30;3.53;;;14.30;99.90;;;;;;4990312;28;20046;-67
2022/07/14 00:39:56;;;;;;;9.77;3.33;;;14.30;99.90;;;;;;4989707;28;20073;-66
2022/07/14 00:42:32;;;;;;;7.93;3.40;;;14.30;99.90;;;;;;4991462;28;20737;-66
2022/07/14 00:45:03;;;;;;;15.15;4.15;;;14.30;99.90;;;;;;4988615;28;20079;-66
2022/07/14 00:47:29;;;;;;;11.68;3.72;;;14.20;99.90;;;;;;4988046;28;20484;-66
2022/07/14 00:49:55;;;;;;;13.25;4.13;;;14.20;99.90;;;;;;4992725;28;20110;-66
2022/07/14 00:52:24;;;;;;;8.15;3.90;;;14.20;99.90;;;;;;4991854;28;20073;-67
2022/07/14 00:54:51;;;;;;;12.45;3.70;;;14.10;99.90;;;;;;4992347;28;20620;-65
2022/07/14 00:57:17;;;;;;;11.55;3.58;;;14.10;99.90;;;;;;4987233;28;20121;-66
2022/07/14 00:59:43;;;;;;;9.07;3.10;;;14.10;99.90;;;;;;4992271;28;20050;-66
2022/07/14 01:02:09;;;;;;;19.23;4.10;;;14.00;99.90;;;;;;4990832;28;20050;-67
2022/07/14 01:04:34;;;;;;;11.60;3.42;;;14.00;99.90;;;;;;4992405;28;20080;-67
2022/07/14 01:07:00;;;;;;;9.77;3.60;;;14.00;99.90;;;;;;4989414;28;20112;-66
2022/07/14 01:09:26;;;;;;;10.70;3.90;;;14.00;99.90;;;;;;4989421;28;20073;-66
2022/07/14 01:11:52;;;;;;;12.75;3.63;;;14.00;99.90;;;;;;4971446;28;20088;-67
2022/07/14 01:14:18;;;;;;;11.45;3.38;;;14.00;99.90;;;;;;5008805;28;20038;-67
2022/07/14 01:16:43;;;;;;;9.32;3.42;;;14.00;99.90;;;;;;4990587;28;20046;-66
2022/07/14 01:19:09;;;;;;;10.25;3.03;;;14.00;99.90;;;;;;4990321;28;20045;-67
2022/07/14 01:21:35;;;;;;;10.30;3.00;;;14.10;99.90;;;;;;4991227;28;20092;-66
2022/07/14 01:24:01;;;;;;;9.82;3.67;;;14.00;99.90;;;;;;4970332;28;20065;-66
2022/07/14 01:26:26;;;;;;;12.25;3.47;;;14.10;99.90;;;;;;4953777;28;20062;-66
2022/07/14 01:28:52;;;;;;;11.05;3.40;;;14.10;99.90;;;;;;4993929;28;21382;-67
2022/07/14 01:31:18;;;;;;;8.38;3.03;;;14.10;99.90;;;;;;4979336;28;20077;-66
2022/07/14 01:33:44;;;;;;;10.20;3.33;;;14.10;99.90;;;;;;4987939;28;20085;-66
2022/07/14 01:36:09;;;;;;;12.50;3.35;;;14.10;99.90;;;;;;4992980;28;20125;-67
2022/07/14 01:38:35;;;;;;;9.25;3.08;;;14.10;99.90;;;;;;4992863;28;20081;-68
2022/07/14 01:41:01;;;;;;;10.13;3.55;;;14.00;99.90;;;;;;4991245;28;20045;-68
2022/07/14 01:43:27;;;;;;;10.38;2.90;;;14.00;99.90;;;;;;4970719;28;20052;-67
2022/07/14 01:45:53;;;;;;;10.48;3.70;;;14.00;99.90;;;;;;4989980;28;20099;-67
2022/07/14 01:48:19;;;;;;;10.95;3.20;;;14.00;99.90;;;;;;4989696;28;20042;-67
2022/07/14 01:50:44;;;;;;;6.85;2.85;;;13.90;99.90;;;;;;4990624;28;20065;-66
2022/07/14 01:53:10;;;;;;;9.05;3.40;;;13.90;99.90;;;;;;4989022;28;20073;-66
2022/07/14 01:55:36;;;;;;;11.85;3.45;;;13.90;99.90;;;;;;4958658;28;20117;-66
2022/07/14 01:58:02;;;;;;;7.43;3.20;;;13.90;99.90;;;;;;4976905;28;20049;-67
2022/07/14 02:00:28;;;;;;;8.45;3.50;;;13.80;99.90;;;;;;4993576;28;20480;-67
2022/07/14 02:02:54;;;;;;;8.93;3.55;;;13.80;99.90;;;;;;4978101;28;20100;-68
2022/07/14 02:05:19;;;;;;;7.53;2.85;;;13.80;99.90;;;;;;4994349;28;20515;-67
2022/07/14 02:07:45;;;;;;;11.25;3.00;;;13.70;99.90;;;;;;4992856;28;20058;-67
2022/07/14 02:12:56;;;;;;;7.45;3.10;;;13.60;99.90;;;;;;4994267;28;20053;-67
2022/07/14 02:15:22;;;;;;;8.00;3.28;;;13.60;99.90;;;;;;4990157;28;20255;-68
2022/07/14 02:17:48;;;;;;;8.88;3.28;;;13.60;99.90;;;;;;5001926;28;20077;-66
2022/07/14 02:20:14;;;;;;;7.68;3.05;;;13.50;99.90;;;;;;4973812;28;20061;-67
2022/07/14 02:22:40;;;;;;;7.93;3.00;;;13.50;99.90;;;;;;5008087;28;20451;-66
2022/07/14 02:25:07;;;;;;;9.13;3.00;;;13.50;99.90;;;;;;4988244;28;20081;-67
2022/07/14 02:27:33;;;;;;;8.35;3.22;;;13.40;99.90;;;;;;4989628;28;20046;-66
2022/07/14 02:29:59;;;;;;;7.80;3.53;;;13.40;99.90;;;;;;4985884;28;20092;-67
2022/07/14 02:32:25;;;;;;;6.18;2.95;;;13.40;99.90;;;;;;4988932;28;20129;-66
2022/07/14 02:34:51;;;;;;;10.00;3.72;;;13.40;99.90;;;;;;4989355;28;20188;-67
2022/07/14 02:37:17;;;;;;;16.15;3.55;;;13.30;99.90;;;;;;4990593;28;20535;-66
2022/07/14 02:39:42;;;;;;;10.88;3.72;;;13.30;99.90;;;;;;4969574;28;20046;-67
2022/07/14 02:42:08;;;;;;;10.40;3.65;;;13.30;99.90;;;;;;4985695;28;20843;-67
2022/07/14 02:44:34;;;;;;;11.63;3.65;;;13.20;99.90;;;;;;4991874;28;20084;-66
2022/07/14 02:47:00;;;;;;;8.00;3.17;;;13.20;99.90;;;;;;4972707;28;20052;-67
2022/07/14 02:49:26;;;;;;;9.15;3.10;;;13.20;99.90;;;;;;4988529;28;20636;-67
2022/07/14 02:51:52;;;;;;;9.57;3.08;;;13.20;99.90;;;;;;5002647;28;20074;-66
2022/07/14 02:54:18;;;;;;;9.63;2.97;;;13.10;99.90;;;;;;4970162;28;20046;-66
2022/07/14 02:56:44;;;;;;;6.60;3.03;;;13.10;99.90;;;;;;4990420;28;20054;-66
2022/07/14 02:59:10;;;;;;;4.85;2.90;;;13.10;99.90;;;;;;4990514;28;20480;-66
2022/07/14 03:01:36;;;;;;;10.07;3.78;;;13.10;99.90;;;;;;4983196;28;20057;-67
2022/07/14 03:04:02;;;;;;;7.88;3.30;;;13.10;99.90;;;;;;4994284;28;20508;-66
2022/07/14 03:06:28;;;;;;;10.60;3.95;;;13.10;99.90;;;;;;4994950;28;20050;-66
2022/07/14 03:08:54;;;;;;;13.50;3.55;;;13.00;99.90;;;;;;4994952;28;20177;-66
2022/07/14 03:11:20;;;;;;;8.65;3.10;;;13.00;99.90;;;;;;4976085;28;20172;-66
2022/07/14 03:13:46;;;;;;;9.63;3.20;;;13.00;99.90;;;;;;4995563;28;20053;-66
2022/07/14 03:16:12;;;;;;;10.77;3.60;;;13.00;99.90;;;;;;4977350;28;20377;-66
2022/07/14 03:18:42;;;;;;;8.35;3.22;;;13.00;99.90;;;;;;4973199;28;20046;-67
2022/07/14 03:21:12;;;;;;;11.63;3.08;;;13.00;99.90;;;;;;4975727;28;20121;-67
2022/07/14 03:23:38;;;;;;;9.27;3.20;;;13.00;99.90;;;;;;4993760;28;20641;-66
2022/07/14 03:26:04;;;;;;;6.90;3.30;;;12.90;99.90;;;;;;4993435;28;20073;-66
2022/07/14 03:28:30;;;;;;;9.18;3.40;;;12.90;99.90;;;;;;4985590;28;20519;-66
2022/07/14 03:30:57;;;;;;;11.85;3.42;;;12.90;99.90;;;;;;4994690;28;20042;-66
2022/07/14 03:33:26;;;;;;;11.45;3.20;;;12.90;99.90;;;;;;4975589;28;20041;-66
2022/07/14 03:35:52;;;;;;;7.82;2.58;;;12.90;99.90;;;;;;4992972;28;20062;-66
2022/07/14 03:38:18;;;;;;;9.13;2.65;;;12.90;99.90;;;;;;4990956;28;20157;-66
2022/07/14 03:40:44;;;;;;;10.05;2.95;;;12.80;99.90;;;;;;4988220;28;20112;-66
2022/07/14 03:43:11;;;;;;;8.00;3.13;;;12.90;99.90;;;;;;4991129;28;20453;-66
2022/07/14 03:45:38;;;;;;;8.68;2.88;;;12.90;99.90;;;;;;4990366;28;20054;-66
2022/07/14 03:48:07;;;;;;;6.45;2.67;;;12.80;99.90;;;;;;4989552;28;20057;-66
2022/07/14 03:50:34;;;;;;;7.85;3.05;;;12.80;99.90;;;;;;4995382;28;20398;-67
2022/07/14 03:53:00;;;;;;;7.28;2.72;;;12.90;99.90;;;;;;4991530;28;20079;-67
2022/07/14 03:55:26;;;;;;;6.68;2.67;;;12.80;99.90;;;;;;4971749;28;20487;-67
2022/07/14 03:57:51;;;;;;;7.07;2.83;;;12.80;99.90;;;;;;4978428;28;20041;-68
2022/07/14 04:00:17;;;;;;;7.30;2.97;;;12.80;99.90;;;;;;4977220;28;20487;-67
2022/07/14 04:02:43;;;;;;;6.95;3.00;;;12.70;99.90;;;;;;4993272;28;20092;-68
2022/07/14 04:05:09;;;;;;;5.68;2.50;;;12.70;99.90;;;;;;4971936;28;20092;-67
2022/07/14 04:07:35;;;;;;;7.25;2.72;;;12.70;99.90;;;;;;4992214;28;20092;-67
2022/07/14 04:10:01;;;;;;;7.55;3.00;;;12.60;99.90;;;;;;4991446;28;20073;-67
2022/07/14 04:12:26;;;;;;;8.05;3.00;;;12.60;99.90;;;;;;4992339;28;20086;-67
2022/07/14 04:14:52;;;;;;;6.50;2.78;;;12.70;99.90;;;;;;4975415;28;20049;-67
2022/07/14 04:17:18;;;;;;;12.15;3.20;;;12.60;99.90;;;;;;4976584;28;20043;-66
2022/07/14 04:19:44;;;;;;;7.20;3.03;;;12.60;99.90;;;;;;4990115;28;20050;-67
2022/07/14 04:22:10;;;;;;;5.65;2.90;;;12.60;99.90;;;;;;4995265;28;20058;-66
2022/07/14 04:24:37;;;;;;;7.80;3.15;;;12.60;99.90;;;;;;4990693;28;20062;-67
2022/07/14 04:27:03;;;;;;;9.68;3.30;;;12.60;99.90;;;;;;4989642;28;20073;-67
2022/07/14 04:29:29;;;;;;;8.43;3.28;;;12.60;99.90;;;;;;5006805;28;20553;-67
2022/07/14 04:31:54;;;;;;;10.45;3.53;;;12.70;99.90;;;;;;4991037;28;20116;-67
2022/07/14 04:34:20;;;;;;;6.80;2.95;;;12.60;99.90;;;;;;4989181;28;20042;-66
2022/07/14 04:36:46;;;;;;;7.07;2.97;;;12.70;99.90;;;;;;4969450;28;20050;-66
2022/07/14 04:39:12;;;;;;;12.52;3.20;;;12.70;99.90;;;;;;4991953;28;20421;-67
2022/07/14 04:41:38;;;;;;;11.18;3.53;;;12.70;99.90;;;;;;4969632;28;20053;-68
2022/07/14 04:44:04;;;;;;;8.88;3.63;;;12.80;99.90;;;;;;4992490;28;20049;-66
2022/07/14 04:46:30;;;;;;;9.85;3.65;;;12.80;99.90;;;;;;4974046;28;20204;-67
2022/07/14 04:54:24;;;;;;;7.22;3.00;;;12.80;99.90;;;;;;4990583;28;20058;-67
2022/07/14 04:56:50;;;;;;;10.57;3.55;;;12.80;99.90;;;;;;4986483;28;20078;-65
2022/07/14 04:59:16;;;;;;;7.53;3.60;;;12.80;99.90;;;;;;4976458;28;20061;-64
2022/07/14 05:01:41;;;;;;;6.32;3.28;;;12.80;99.90;;;;;;4993580;28;20096;-66
2022/07/14 05:04:08;;;;;;;7.57;3.00;;;12.80;99.90;;;;;;4993754;28;20054;-66
2022/07/14 05:06:34;;;;;;;7.78;2.95;;;12.80;99.90;;;;;;4986727;28;20046;-66
2022/07/14 05:08:59;;;;;;;6.95;2.78;;;12.80;99.90;;;;;;5004152;28;20057;-66
2022/07/14 05:11:25;;;;;;;4.95;2.75;;;12.80;99.90;;;;;;4986021;28;20470;-65
2022/07/14 05:13:54;;;;;;;8.63;3.00;;;12.80;99.90;;;;;;4978661;28;20108;-65
2022/07/14 05:16:21;;;;;;;5.65;2.42;;;12.80;99.90;;;;;;4983413;28;20042;-66
2022/07/14 05:18:47;;;;;;;10.80;3.05;;;12.80;99.90;;;;;;4970732;28;20057;-66
2022/07/14 05:21:14;;;;;;;8.10;2.85;;;12.80;99.90;;;;;;4987669;28;20522;-65
2022/07/14 05:23:40;;;;;;;8.57;2.58;;;12.90;99.90;;;;;;4969455;28;20066;-66
2022/07/14 05:26:10;;;;;;;6.72;2.63;;;12.90;99.90;;;;;;4986504;28;20104;-65
2022/07/14 05:28:36;;;;;;;6.72;3.20;;;12.90;99.90;;;;;;4977598;28;20151;-65
2022/07/14 05:31:02;;;;;;;6.07;2.72;;;13.00;99.90;;;;;;4973375;28;20080;-65
2022/07/14 05:33:28;;;;;;;6.80;2.90;;;13.00;99.90;;;;;;4996661;28;20472;-65
2022/07/14 05:35:55;;;;;;;6.28;2.90;;;13.00;99.90;;;;;;4988640;28;20054;-65
2022/07/14 05:38:23;;;;;;;5.60;2.30;;;13.10;99.90;;;;;;4990651;28;20084;-64
2022/07/14 05:40:50;;;;;;;12.15;3.30;;;13.20;99.90;;;;;;4974097;28;20484;-65
2022/07/14 05:43:15;;;;;;;4.63;2.65;;;13.20;99.90;;;;;;4994162;28;20064;-65
2022/07/14 05:45:41;;;;;;;7.25;3.00;;;13.30;99.90;;;;;;4993761;28;20571;-65
2022/07/14 05:48:07;;;;;;;10.40;3.03;;;13.40;99.90;;;;;;4994949;28;20077;-65
2022/07/14 05:50:33;;;;;;;8.95;3.00;;;13.50;99.90;;;;;;4992578;28;20057;-66
2022/07/14 05:52:59;;;;;;;6.78;2.33;;;13.50;99.90;;;;;;4989731;28;20151;-65
2022/07/14 05:55:25;;;;;;;8.48;3.47;;;13.60;99.90;;;;;;4991049;28;20050;-65
2022/07/14 05:57:51;;;;;;;10.98;3.10;;;13.70;99.90;;;;;;4992137;28;20091;-66
2022/07/14 06:00:17;;;;;;;7.20;2.70;;;13.90;99.90;;;;;;4997339;28;20096;-66
2022/07/14 06:02:43;;;;;;;7.65;2.30;;;14.00;99.90;;;;;;4995049;28;20072;-66
2022/07/14 06:05:10;;;;;;;11.38;2.50;;;14.10;99.90;;;;;;4994449;28;20049;-65
2022/07/14 06:07:36;;;;;;;9.32;2.53;;;14.30;99.90;;;;;;4979320;28;20053;-66
2022/07/14 06:10:04;;;;;;;7.35;2.65;;;14.40;99.90;;;;;;4983677;28;20480;-66
2022/07/14 06:12:31;;;;;;;9.25;1.95;;;14.60;99.90;;;;;;4991768;28;20076;-66
2022/07/14 06:14:57;;;;;;;7.47;2.08;;;14.70;99.90;;;;;;4967209;28;20417;-66
2022/07/14 06:17:22;;;;;;;5.88;2.45;;;14.90;99.90;;;;;;4987460;28;20049;-67
2022/07/14 06:19:48;;;;;;;9.40;2.00;;;14.90;99.90;;;;;;4989170;28;20103;-68
2022/07/14 06:22:14;;;;;;;6.38;1.98;;;15.00;99.90;;;;;;4972420;28;20065;-66
2022/07/14 06:24:43;;;;;;;12.13;2.65;;;15.10;99.90;;;;;;4991782;28;20076;-66
2022/07/14 06:27:09;;;;;;;8.95;2.30;;;15.10;99.90;;;;;;4958743;28;20046;-66
2022/07/14 06:29:35;;;;;;;13.98;2.50;;;15.20;99.90;;;;;;4996780;28;20080;-67
2022/07/14 06:32:03;;;;;;;7.40;2.30;;;15.30;99.90;;;;;;4981007;28;20444;-66
2022/07/14 06:34:29;;;;;;;5.38;2.30;;;15.40;99.90;;;;;;5013603;28;20046;-65
2022/07/14 06:36:55;;;;;;;9.52;2.30;;;15.50;99.90;;;;;;4997872;28;20050;-67
2022/07/14 06:39:21;;;;;;;10.00;2.20;;;15.70;99.90;;;;;;5018207;28;20046;-66
2022/07/14 06:41:46;;;;;;;10.20;1.75;;;15.70;99.90;;;;;;5015188;28;20053;-66
2022/07/14 06:44:13;;;;;;;4.63;1.85;;;15.80;99.90;;;;;;4979056;28;20050;-65
2022/07/14 06:46:39;;;;;;;9.07;1.80;;;15.90;99.90;;;;;;4984207;28;20996;-66
2022/07/14 06:49:05;;;;;;;10.93;1.83;;;16.10;99.90;;;;;;4992914;28;20658;-66
2022/07/14 06:51:31;;;;;;;6.68;1.65;;;16.10;99.90;;;;;;5003558;28;20107;-65
2022/07/14 06:53:57;;;;;;;8.63;2.00;;;16.30;99.90;;;;;;5002595;28;20045;-66
2022/07/14 06:56:22;;;;;;;8.68;1.65;;;16.30;99.90;;;;;;5003580;28;20053;-65
2022/07/14 06:58:48;;;;;;;6.75;1.33;;;16.40;99.90;;;;;;5002640;28;20797;-66
2022/07/14 07:01:14;;;;;;;4.97;1.20;;;16.50;99.90;;;;;;4998438;28;20037;-65
2022/07/14 07:03:40;;;;;;;5.15;1.25;;;16.60;99.90;;;;;;4997766;28;20500;-65
2022/07/14 07:08:51;;;;;;;6.63;1.05;;;16.80;99.90;;;;;;5001622;28;20041;-65
2022/07/14 07:11:17;;;;;;;4.65;1.10;;;17.00;99.90;;;;;;5016210;28;20045;-66
2022/07/14 07:13:43;;;;;;;3.75;1.10;;;17.10;99.90;;;;;;5001076;28;20045;-66
2022/07/14 07:16:09;;;;;;;4.70;1.30;;;17.20;99.90;;;;;;4998051;28;20045;-66
2022/07/14 07:18:36;;;;;;;3.28;0.90;;;17.20;99.90;;;;;;4981153;28;20112;-66
2022/07/14 07:21:03;;;;;;;5.60;1.05;;;17.30;99.90;;;;;;4969607;28;20042;-65
2022/07/14 07:23:30;;;;;;;4.07;1.50;;;17.30;99.90;;;;;;5000447;28;20070;-66
2022/07/14 07:25:56;;;;;;;6.03;1.13;;;17.40;99.90;;;;;;5001622;28;20111;-66
2022/07/14 07:28:22;;;;;;;4.93;1.17;;;17.50;99.90;;;;;;5002147;28;20519;-66
2022/07/14 07:30:48;;;;;;;3.33;0.80;;;17.60;99.90;;;;;;4969611;28;20049;-66
2022/07/14 07:33:14;;;;;;;6.18;1.40;;;17.70;99.90;;;;;;5001696;28;20054;-66
2022/07/14 07:35:43;;;;;;;5.47;1.15;;;17.80;99.90;;;;;;5001375;28;20065;-66
2022/07/14 07:38:09;;;;;;;3.97;1.13;;;18.00;99.90;;;;;;5019223;28;20081;-69
2022/07/14 07:40:35;;;;;;;4.07;1.20;;;18.10;99.90;;;;;;5017595;28;20054;-67
2022/07/14 07:43:00;;;;;;;5.13;1.10;;;18.30;99.90;;;;;;5002596;28;20081;-66
2022/07/14 07:45:26;;;;;;;3.75;0.80;;;18.40;99.90;;;;;;5002672;28;20053;-65
2022/07/14 07:47:52;;;;;;;2.92;0.90;;;18.50;99.90;;;;;;5001016;28;20041;-66
2022/07/14 07:50:18;;;;;;;2.88;0.80;;;18.40;99.90;;;;;;4992505;28;20058;-66
2022/07/14 07:52:44;;;;;;;5.32;1.52;;;18.40;99.90;;;;;;5001962;28;20104;-66
2022/07/14 07:55:10;;;;;;;5.85;1.10;;;18.50;99.90;;;;;;5016957;28;20046;-66
2022/07/14 07:57:37;;;;;;;2.75;1.00;;;18.50;99.90;;;;;;5002015;28;20056;-66
2022/07/14 08:00:04;;;;;;;2.85;0.70;;;18.70;99.90;;;;;;5001885;28;20478;-66
2022/07/14 08:02:31;;;;;;;4.53;0.90;;;18.90;99.90;;;;;;4961457;28;20128;-67
2022/07/14 08:04:56;;;;;;;5.63;1.05;;;19.00;99.90;;;;;;5001907;28;20058;-66
2022/07/14 08:07:22;;;;;;;2.10;0.90;;;19.10;99.90;;;;;;5002039;28;20042;-66
2022/07/14 08:09:48;;;;;;;2.28;0.80;;;19.20;99.60;;;;;;4998721;28;20504;-66
2022/07/14 08:12:14;;;;;;;4.25;0.88;;;19.30;99.40;;;;;;4985666;28;20038;-66
2022/07/14 08:14:49;;;;;;;3.83;1.00;;;19.40;99.10;;;;;;5001128;28;20081;-66
2022/07/14 08:17:17;;;;;;;2.75;1.02;;;19.50;98.80;;;;;;4993881;28;20049;-67
2022/07/14 08:19:43;;;;;;;3.90;1.08;;;19.50;98.30;;;;;;4984826;28;20057;-66
2022/07/14 08:22:09;;;;;;;5.15;0.90;;;19.50;98.10;;;;;;5001478;28;20046;-66
2022/07/14 08:24:34;;;;;;;5.53;1.17;;;19.50;98.20;;;;;;4984107;28;20058;-66
2022/07/14 08:27:00;;;;;;;6.00;1.02;;;19.50;97.90;;;;;;5012225;28;20053;-67
2022/07/14 08:29:27;;;;;;;3.72;0.88;;;19.60;98.00;;;;;;4997298;28;20390;-67
2022/07/14 08:31:52;;;;;;;4.53;1.08;;;19.70;97.90;;;;;;5000037;28;20204;-67
2022/07/14 08:34:18;;;;;;;3.65;1.10;;;19.90;97.50;;;;;;4999829;28;20038;-67
2022/07/14 08:36:44;;;;;;;3.63;0.90;;;20.00;97.70;;;;;;5000558;28;20084;-66
2022/07/14 08:39:10;;;;;;;3.28;0.80;;;20.10;97.40;;;;;;4998770;28;20594;-67
2022/07/14 08:41:37;;;;;;;5.53;1.02;;;20.10;97.00;;;;;;4985176;28;20046;-67
2022/07/14 08:44:04;;;;;;;6.88;0.80;;;20.10;96.80;;;;;;4981358;28;20172;-67
2022/07/14 08:46:31;;;;;;;2.55;0.60;;;20.20;96.70;;;;;;5000929;28;20386;-67
2022/07/14 08:48:58;;;;;;;1.42;0.68;;;20.20;96.50;;;;;;5000312;28;20049;-67
2022/07/14 08:51:24;;;;;;;3.55;0.93;;;20.20;96.60;;;;;;5016377;28;20046;-66
2022/07/14 08:53:50;;;;;;;3.38;0.80;;;20.20;96.40;;;;;;5000473;28;20045;-68
2022/07/14 08:56:17;;;;;;;5.82;0.82;;;20.30;95.80;;;;;;5000980;28;20061;-67
2022/07/14 08:58:46;;;;;;;2.38;0.77;;;20.30;95.60;;;;;;4999227;28;20088;-67
2022/07/14 09:01:12;;;;;;;5.00;0.90;;;20.30;95.40;;;;;;4996748;28;20084;-67
2022/07/14 09:03:38;;;;;;;2.03;0.60;;;20.40;95.00;;;;;;4999515;28;20042;-67
2022/07/14 09:06:05;;;;;;;2.83;1.08;;;20.50;94.30;;;;;;5001175;28;20061;-67
2022/07/14 09:08:53;;;;;;;4.90;0.60;;;20.60;94.00;;;;;;4998749;28;20125;-68
2022/07/14 09:11:19;;;;;;;3.53;0.80;;;20.60;94.70;;;;;;5000155;28;20046;-67
2022/07/14 09:13:45;;;;;;;3.05;1.10;;;20.60;94.50;;;;;;4991448;28;20053;-67
2022/07/14 09:16:24;;;;;;;2.78;0.70;;;20.60;94.60;;;;;;4997987;28;20034;-66
2022/07/14 09:19:12;;;;;;;3.08;0.60;;;20.50;94.30;;;;;;4998025;28;20508;-67
2022/07/14 09:21:39;;;;;;;3.53;0.70;;;20.50;93.40;;;;;;4999634;28;20073;-67
2022/07/14 09:24:09;;;;;;;5.50;0.90;;;20.40;93.30;;;;;;4963755;28;20602;-68
2022/07/14 09:27:02;;;;;;;2.80;0.70;;;20.50;93.80;;;;;;4998250;28;20045;-67
2022/07/14 09:29:29;;;;;;;5.63;0.93;;;20.60;93.70;;;;;;5002780;28;20443;-67
2022/07/14 09:31:55;;;;;;;3.03;0.88;;;20.60;93.30;;;;;;5016663;28;20786;-67
2022/07/14 09:34:31;;;;;;;3.65;0.80;;;20.80;93.30;;;;;;4997829;28;20042;-67
2022/07/14 09:37:17;;;;;;;4.00;1.00;;;20.90;92.80;;;;;;5013834;28;20049;-68
2022/07/14 09:39:54;;;;;;;2.72;0.90;;;20.90;92.90;;;;;;4980514;28;20057;-66
2022/07/14 09:42:21;;;;;;;3.67;0.80;;;21.00;92.50;;;;;;4975205;28;20057;-67
2022/07/14 09:44:46;;;;;;;2.85;0.73;;;21.10;92.80;;;;;;4998975;28;20475;-67
2022/07/14 09:47:12;;;;;;;3.10;0.80;;;21.30;92.60;;;;;;4999525;28;20054;-67
2022/07/14 09:49:40;;;;;;;2.90;0.90;;;21.50;92.40;;;;;;4996058;28;20496;-68
2022/07/14 09:52:07;;;;;;;2.55;0.85;;;21.60;91.90;;;;;;4981054;28;20049;-68
2022/07/14 09:54:44;;;;;;;6.95;1.00;;;21.70;91.70;;;;;;4980036;28;20057;-67
2022/07/14 09:57:13;;;;;;;2.13;0.57;;;21.80;91.40;;;;;;4991099;28;20052;-67
2022/07/14 10:00:12;;;;;;;3.58;0.80;;;21.80;91.30;;;;;;4997567;28;20488;-68
2022/07/14 10:02:40;;;;;;;3.70;0.88;;;21.70;91.20;;;;;;5000422;28;20054;-67
2022/07/14 10:05:09;;;;;;;2.58;0.90;;;21.70;91.10;;;;;;4999730;28;20053;-67
2022/07/14 10:07:38;;;;;;;4.10;1.00;;;21.70;90.90;;;;;;4996667;28;20049;-66
2022/07/14 10:10:06;;;;;;;1.75;0.70;;;21.70;91.10;;;;;;4995400;28;20058;-67
2022/07/14 10:12:33;;;;;;;3.58;0.82;;;21.80;90.60;;;;;;5015093;28;20046;-67
2022/07/14 10:15:02;;;;;;;1.50;0.70;;;21.90;90.80;;;;;;5000244;28;20232;-68
2022/07/14 10:17:37;;;;;;;1.83;0.60;;;22.10;90.50;;;;;;4981946;28;20510;-67
2022/07/14 10:20:09;;;;;;;4.10;0.85;;;22.10;89.40;;;;;;4996933;28;20077;-67
2022/07/14 10:22:35;;;;;;;4.40;0.90;;;22.10;88.70;;;;;;4997940;28;20404;-67
2022/07/14 10:25:06;;;;;;;3.17;1.02;;;22.00;88.50;;;;;;4995552;28;20046;-67
2022/07/14 10:27:32;;;;;;;4.43;0.88;;;22.00;88.50;;;;;;4999529;28;20508;-67
2022/07/14 10:29:59;;;;;;;3.97;0.75;;;22.10;89.10;;;;;;4983189;28;20575;-67
2022/07/14 10:32:46;;;;;;;2.60;0.80;;;22.30;89.40;;;;;;4998384;28;20050;-67
2022/07/14 10:35:49;;;;;;;1.73;0.88;;;22.60;89.70;;;;;;4982682;28;20558;-67
2022/07/14 10:38:34;;;;;;;;;;;22.70;87.60;;;;;;4999797;28;20432;-68
2022/07/14 10:41:29;;;;;;;2.78;0.95;;;22.50;87.20;;;;;;5013850;28;20618;-67
2022/07/14 10:44:20;;;;;;;3.50;0.63;;;22.40;85.60;;;;;;4978634;28;20050;-68
2022/07/14 10:46:49;;;;;;;3.50;1.17;;;22.40;86.20;;;;;;4996963;28;20152;-68
2022/07/14 10:49:16;;;;;;;2.00;0.77;;;22.30;85.60;;;;;;4997075;28;20433;-68
2022/07/14 10:51:50;;;;;;;4.22;0.88;;;22.20;85.50;;;;;;5000117;28;20504;-68
2022/07/14 10:54:24;;;;;;;4.10;1.05;;;22.10;85.20;;;;;;5013595;28;20072;-68
2022/07/14 10:57:17;;;;;;;3.60;0.90;;;22.00;85.60;;;;;;4981317;28;20056;-67
2022/07/14 10:59:47;;;;;;;1.95;0.70;;;21.90;85.60;;;;;;4973929;28;20603;-68
2022/07/14 11:02:13;;;;;;;3.08;0.60;;;21.80;85.80;;;;;;4993884;28;20061;-67
2022/07/14 11:04:57;;;;;;;3.15;0.88;;;21.70;85.70;;;;;;4998747;28;20052;-67
2022/07/14 11:07:56;;;;;;;4.38;0.65;;;21.70;84.60;;;;;;4998902;28;20128;-68
2022/07/14 11:10:25;;;;;;;3.50;0.80;;;21.60;85.60;;;;;;4972190;28;20050;-69
2022/07/14 11:13:03;;;;;;;5.35;0.88;;;21.60;86.90;;;;;;5000074;28;20424;-68
2022/07/14 11:15:51;;;;;;;2.03;0.70;;;21.50;87.00;;;;;;4981174;28;20480;-69
2022/07/14 11:18:17;;;;;;;4.10;0.90;;;21.50;87.60;;;;;;4992158;28;20042;-68
2022/07/14 11:20:53;;;;;;;3.78;0.93;;;21.40;88.10;;;;;;4998021;28;20606;-68
2022/07/14 11:23:28;;;;;;;3.22;0.63;;;21.50;87.80;;;;;;4998674;28;20464;-68
2022/07/14 11:25:56;;;;;;;2.63;0.75;;;21.70;88.40;;;;;;4982217;28;20520;-68
2022/07/14 11:28:31;;;;;;;4.00;1.35;;;21.90;88.90;;;;;;4984543;28;20169;-67
2022/07/14 11:31:21;;;;;;;2.10;0.70;;;22.20;87.20;;;;;;4997109;28;20644;-68
2022/07/14 11:36:34;;;;;;;3.35;0.80;;;22.60;85.30;;;;;;4998486;28;20049;-67
2022/07/14 11:39:15;;;;;;;4.95;0.95;;;22.70;85.30;;;;;;5002417;28;20247;-68
2022/07/14 11:41:47;;;;;;;3.80;0.85;;;22.80;84.80;;;;;;4981809;28;20594;-67
2022/07/14 11:44:40;;;;;;;3.42;0.80;;;22.70;84.80;;;;;;4999914;28;20045;-68
2022/07/14 11:47:16;;;;;;;3.97;0.95;;;22.70;84.30;;;;;;5000908;28;20042;-67
2022/07/14 11:49:53;;;;;;;5.55;1.05;;;22.60;83.90;;;;;;4996194;28;21064;-68
2022/07/14 11:52:28;;;;;;;4.35;0.88;;;22.70;83.10;;;;;;5002507;28;20038;-67
2022/07/14 11:54:56;;;;;;;12.15;1.42;;;22.60;82.70;;;;;;5000358;28;20037;-67
2022/07/14 11:57:22;;;;;;;2.25;0.77;;;22.50;82.30;;;;;;4982792;28;20050;-67
2022/07/14 11:59:49;;;;;;;3.78;0.90;;;22.30;82.90;;;;;;4996626;28;20049;-68
2022/07/14 12:02:18;;;;;;;4.03;0.93;;;22.10;84.40;;;;;;5002017;28;20061;-68
2022/07/14 12:04:53;;;;;;;5.55;1.08;;;22.00;85.20;;;;;;5017533;28;20058;-68
2022/07/14 12:07:24;;;;;;;4.43;0.90;;;21.80;84.50;;;;;;5016996;28;20322;-68
2022/07/14 12:09:52;;;;;;;3.65;1.00;;;21.70;85.20;;;;;;5001077;28;20053;-67
2022/07/14 12:12:20;;;;;;;3.08;1.05;;;21.60;86.10;;;;;;4984360;28;20048;-68
2022/07/14 12:14:49;;;;;;;3.28;0.80;;;21.60;86.50;;;;;;4999070;28;20125;-67
2022/07/14 12:17:16;;;;;;;3.88;0.90;;;21.90;86.70;;;;;;5000226;28;20041;-68
2022/07/14 12:19:43;;;;;;;5.32;0.98;;;22.30;86.50;;;;;;4974695;28;20395;-67
2022/07/14 12:22:10;;;;;;;3.08;0.88;;;22.80;85.30;;;;;;4984166;28;20129;-68
2022/07/14 12:24:38;;;;;;;4.93;0.95;;;23.20;83.50;;;;;;5000019;28;20065;-68
2022/07/14 12:27:10;;;;;;;3.33;0.60;;;23.60;82.30;;;;;;5015771;28;20468;-68
2022/07/14 12:29:44;;;;;;;2.67;0.98;;;23.70;79.30;;;;;;4997519;28;20050;-68
2022/07/14 12:32:10;;;;;;;3.20;0.90;;;23.50;77.80;;;;;;4969831;28;20042;-68
2022/07/14 12:34:37;;;;;;;3.63;0.70;;;23.10;76.70;;;;;;5008964;28;20060;-69
2022/07/14 12:37:04;;;;;;;2.83;0.70;;;22.80;76.70;;;;;;5017380;28;20092;-68
2022/07/14 12:39:31;;;;;;;3.20;0.82;;;22.50;77.00;;;;;;4979775;28;20132;-69
2022/07/14 12:42:03;;;;;;;2.00;0.70;;;22.30;77.10;;;;;;5000871;28;20477;-67
2022/07/14 12:44:31;;;;;;;3.20;0.82;;;22.10;77.40;;;;;;4986659;28;20133;-68
2022/07/14 12:47:11;;;;;;;2.45;0.82;;;21.90;77.40;;;;;;4991469;28;20046;-68
2022/07/14 12:49:46;;;;;;;2.17;0.82;;;22.10;78.10;;;;;;4971835;28;20053;-69
2022/07/14 12:52:15;;;;;;;2.80;0.75;;;22.60;79.00;;;;;;4978554;28;20451;-69
2022/07/14 12:54:42;;;;;;;4.40;0.80;;;22.90;77.10;;;;;;4988920;28;20088;-68
2022/07/14 12:57:22;;;;;;;2.97;0.98;;;23.00;74.90;;;;;;5005994;28;20046;-68
2022/07/14 12:59:49;;;;;;;5.35;0.90;;;23.00;74.80;;;;;;5002378;28;20042;-68
2022/07/14 13:02:24;;;;;;;2.67;0.98;;;22.80;75.20;;;;;;4987146;28;20061;-69
2022/07/14 13:05:00;;;;;;;2.90;0.80;;;22.50;76.20;;;;;;5005379;28;20062;-68